sensor_id;sensor_type;location;lat;lon;timestamp;temperature;humidity
2190;DHT22;1101;51.056;7.262;2022-09-09T00:01:48;15.90;86.00
2190;DHT22;1101;51.056;7.262;2022-09-09T00:04:26;15.90;86.10
2190;DHT22;1101;51.056;7.262;2022-09-09T00:07:04;15.90;86.20
2190;DHT22;1101;51.056;7.262;2022-09-09T00:09:43;15.90;86.20
2190;DHT22;1101;51.056;7.262;2022-09-09T00:12:15;15.90;86.20
2190;DHT22;1101;51.056;7.262;2022-09-09T00:14:48;15.90;86.20
2190;DHT22;1101;51.056;7.262;2022-09-09T00:17:33;15.90;86.20
2190;DHT22;1101;51.056;7.262;2022-09-09T00:20:11;15.90;86.20
2190;DHT22;1101;51.056;7.262;2022-09-09T00:22:43;15.80;86.10
2190;DHT22;1101;51.056;7.262;2022-09-09T00:25:21;15.80;86.10
2190;DHT22;1101;51.056;7.262;2022-09-09T00:27:54;15.80;86.20
2190;DHT22;1101;51.056;7.262;2022-09-09T00:30:24;15.80;86.30
2190;DHT22;1101;51.056;7.262;2022-09-09T00:32:54;15.80;86.30
2190;DHT22;1101;51.056;7.262;2022-09-09T00:35:27;15.80;86.40
2190;DHT22;1101;51.056;7.262;2022-09-09T00:38:02;15.70;86.30
2190;DHT22;1101;51.056;7.262;2022-09-09T00:40:37;15.70;86.40
2190;DHT22;1101;51.056;7.262;2022-09-09T00:43:24;15.70;86.40
2190;DHT22;1101;51.056;7.262;2022-09-09T00:48:55;15.70;86.50
2190;DHT22;1101;51.056;7.262;2022-09-09T00:51:31;15.60;86.40
2190;DHT22;1101;51.056;7.262;2022-09-09T00:57:13;15.60;86.40
2190;DHT22;1101;51.056;7.262;2022-09-09T00:59:47;15.60;86.60
2190;DHT22;1101;51.056;7.262;2022-09-09T01:02:25;15.50;86.50
2190;DHT22;1101;51.056;7.262;2022-09-09T01:05:00;15.50;86.50
2190;DHT22;1101;51.056;7.262;2022-09-09T01:07:29;15.50;86.60
2190;DHT22;1101;51.056;7.262;2022-09-09T01:10:00;15.50;86.70
2190;DHT22;1101;51.056;7.262;2022-09-09T01:12:37;15.50;86.80
2190;DHT22;1101;51.056;7.262;2022-09-09T01:15:10;15.40;86.80
2190;DHT22;1101;51.056;7.262;2022-09-09T01:17:50;15.40;86.80
2190;DHT22;1101;51.056;7.262;2022-09-09T01:20:22;15.40;87.50
2190;DHT22;1101;51.056;7.262;2022-09-09T01:23:07;15.40;87.60
2190;DHT22;1101;51.056;7.262;2022-09-09T01:26:16;15.40;87.00
2190;DHT22;1101;51.056;7.262;2022-09-09T01:28:47;15.40;87.00
2190;DHT22;1101;51.056;7.262;2022-09-09T01:31:18;15.40;87.00
2190;DHT22;1101;51.056;7.262;2022-09-09T01:33:47;15.40;87.00
2190;DHT22;1101;51.056;7.262;2022-09-09T01:36:20;15.40;87.00
2190;DHT22;1101;51.056;7.262;2022-09-09T01:38:49;15.40;87.10
2190;DHT22;1101;51.056;7.262;2022-09-09T01:41:18;15.50;87.20
2190;DHT22;1101;51.056;7.262;2022-09-09T01:43:46;15.40;87.10
2190;DHT22;1101;51.056;7.262;2022-09-09T01:46:14;15.40;87.10
2190;DHT22;1101;51.056;7.262;2022-09-09T01:48:44;15.40;87.10
2190;DHT22;1101;51.056;7.262;2022-09-09T01:51:12;15.40;87.10
2190;DHT22;1101;51.056;7.262;2022-09-09T01:53:41;15.40;87.20
2190;DHT22;1101;51.056;7.262;2022-09-09T01:56:21;15.40;87.20
2190;DHT22;1101;51.056;7.262;2022-09-09T01:59:10;15.40;87.20
2190;DHT22;1101;51.056;7.262;2022-09-09T02:01:50;15.40;87.30
2190;DHT22;1101;51.056;7.262;2022-09-09T02:04:31;15.40;87.30
2190;DHT22;1101;51.056;7.262;2022-09-09T02:07:01;15.30;87.20
2190;DHT22;1101;51.056;7.262;2022-09-09T02:09:30;15.30;87.30
2190;DHT22;1101;51.056;7.262;2022-09-09T02:12:03;15.30;87.30
2190;DHT22;1101;51.056;7.262;2022-09-09T02:14:37;15.30;87.40
2190;DHT22;1101;51.056;7.262;2022-09-09T02:17:09;15.30;87.40
2190;DHT22;1101;51.056;7.262;2022-09-09T02:19:40;15.30;87.50
2190;DHT22;1101;51.056;7.262;2022-09-09T02:22:09;15.30;87.50
2190;DHT22;1101;51.056;7.262;2022-09-09T02:24:39;15.30;87.50
2190;DHT22;1101;51.056;7.262;2022-09-09T02:27:09;15.30;87.50
2190;DHT22;1101;51.056;7.262;2022-09-09T02:29:40;15.30;87.60
2190;DHT22;1101;51.056;7.262;2022-09-09T02:32:12;15.40;87.70
2190;DHT22;1101;51.056;7.262;2022-09-09T02:34:44;15.40;87.70
2190;DHT22;1101;51.056;7.262;2022-09-09T02:37:14;15.40;87.70
2190;DHT22;1101;51.056;7.262;2022-09-09T02:39:43;15.40;87.70
2190;DHT22;1101;51.056;7.262;2022-09-09T02:42:13;15.40;87.70
2190;DHT22;1101;51.056;7.262;2022-09-09T02:44:41;15.40;87.60
2190;DHT22;1101;51.056;7.262;2022-09-09T02:47:25;15.40;87.60
2190;DHT22;1101;51.056;7.262;2022-09-09T02:50:02;15.40;87.70
2190;DHT22;1101;51.056;7.262;2022-09-09T02:52:36;15.40;87.70
2190;DHT22;1101;51.056;7.262;2022-09-09T02:55:12;15.40;87.60
2190;DHT22;1101;51.056;7.262;2022-09-09T02:57:46;15.50;87.70
2190;DHT22;1101;51.056;7.262;2022-09-09T03:00:15;15.40;87.60
2190;DHT22;1101;51.056;7.262;2022-09-09T03:02:42;15.50;87.80
2190;DHT22;1101;51.056;7.262;2022-09-09T03:05:11;15.50;87.80
2190;DHT22;1101;51.056;7.262;2022-09-09T03:07:39;15.50;87.80
2190;DHT22;1101;51.056;7.262;2022-09-09T03:10:08;15.50;87.80
2190;DHT22;1101;51.056;7.262;2022-09-09T03:12:37;15.50;87.80
2190;DHT22;1101;51.056;7.262;2022-09-09T03:15:07;15.50;87.80
2190;DHT22;1101;51.056;7.262;2022-09-09T03:17:36;15.50;87.80
2190;DHT22;1101;51.056;7.262;2022-09-09T03:20:04;15.50;87.80
2190;DHT22;1101;51.056;7.262;2022-09-09T03:22:32;15.50;87.80
2190;DHT22;1101;51.056;7.262;2022-09-09T03:25:00;15.50;87.80
2190;DHT22;1101;51.056;7.262;2022-09-09T03:27:28;15.50;87.90
2190;DHT22;1101;51.056;7.262;2022-09-09T03:29:56;15.50;87.80
2190;DHT22;1101;51.056;7.262;2022-09-09T03:32:25;15.50;87.80
2190;DHT22;1101;51.056;7.262;2022-09-09T03:34:53;15.50;87.80
2190;DHT22;1101;51.056;7.262;2022-09-09T03:37:21;15.50;87.80
2190;DHT22;1101;51.056;7.262;2022-09-09T03:39:49;15.50;87.80
2190;DHT22;1101;51.056;7.262;2022-09-09T03:42:17;15.50;87.90
2190;DHT22;1101;51.056;7.262;2022-09-09T03:44:46;15.50;87.90
2190;DHT22;1101;51.056;7.262;2022-09-09T03:47:17;15.50;87.90
2190;DHT22;1101;51.056;7.262;2022-09-09T03:49:47;15.50;87.90
2190;DHT22;1101;51.056;7.262;2022-09-09T03:52:15;15.50;88.00
2190;DHT22;1101;51.056;7.262;2022-09-09T03:54:49;15.50;88.00
2190;DHT22;1101;51.056;7.262;2022-09-09T03:57:17;15.50;87.90
2190;DHT22;1101;51.056;7.262;2022-09-09T03:59:45;15.60;88.70
2190;DHT22;1101;51.056;7.262;2022-09-09T04:02:13;15.60;88.00
2190;DHT22;1101;51.056;7.262;2022-09-09T04:04:42;15.60;88.00
2190;DHT22;1101;51.056;7.262;2022-09-09T04:07:11;15.60;88.10
2190;DHT22;1101;51.056;7.262;2022-09-09T04:09:39;15.60;88.00
2190;DHT22;1101;51.056;7.262;2022-09-09T04:12:07;15.60;88.00
2190;DHT22;1101;51.056;7.262;2022-09-09T04:14:35;15.60;88.00
2190;DHT22;1101;51.056;7.262;2022-09-09T04:17:02;15.60;88.00
2190;DHT22;1101;51.056;7.262;2022-09-09T04:19:32;15.50;87.90
2190;DHT22;1101;51.056;7.262;2022-09-09T04:22:00;15.50;88.00
2190;DHT22;1101;51.056;7.262;2022-09-09T04:24:29;15.60;88.10
2190;DHT22;1101;51.056;7.262;2022-09-09T04:26:57;15.50;88.00
2190;DHT22;1101;51.056;7.262;2022-09-09T04:29:25;15.50;88.00
2190;DHT22;1101;51.056;7.262;2022-09-09T04:31:53;15.50;88.00
2190;DHT22;1101;51.056;7.262;2022-09-09T04:34:21;15.50;88.00
2190;DHT22;1101;51.056;7.262;2022-09-09T04:36:48;15.50;88.00
2190;DHT22;1101;51.056;7.262;2022-09-09T04:39:18;15.50;88.00
2190;DHT22;1101;51.056;7.262;2022-09-09T04:41:47;15.60;88.20
2190;DHT22;1101;51.056;7.262;2022-09-09T04:44:15;15.50;88.00
2190;DHT22;1101;51.056;7.262;2022-09-09T04:46:43;15.50;88.10
2190;DHT22;1101;51.056;7.262;2022-09-09T04:49:11;15.50;88.10
2190;DHT22;1101;51.056;7.262;2022-09-09T04:51:41;15.50;88.10
2190;DHT22;1101;51.056;7.262;2022-09-09T04:54:09;15.50;88.10
2190;DHT22;1101;51.056;7.262;2022-09-09T04:56:38;15.60;88.30
2190;DHT22;1101;51.056;7.262;2022-09-09T04:59:09;15.50;88.20
2190;DHT22;1101;51.056;7.262;2022-09-09T05:01:37;15.50;88.10
2190;DHT22;1101;51.056;7.262;2022-09-09T05:04:05;15.50;88.20
2190;DHT22;1101;51.056;7.262;2022-09-09T05:06:33;15.50;88.20
2190;DHT22;1101;51.056;7.262;2022-09-09T05:09:02;15.60;88.30
2190;DHT22;1101;51.056;7.262;2022-09-09T05:11:31;15.60;88.30
2190;DHT22;1101;51.056;7.262;2022-09-09T05:14:02;15.60;88.30
2190;DHT22;1101;51.056;7.262;2022-09-09T05:16:31;15.50;88.20
2190;DHT22;1101;51.056;7.262;2022-09-09T05:19:00;15.50;88.20
2190;DHT22;1101;51.056;7.262;2022-09-09T05:21:29;15.50;88.20
2190;DHT22;1101;51.056;7.262;2022-09-09T05:23:57;15.50;89.00
2190;DHT22;1101;51.056;7.262;2022-09-09T05:26:27;15.50;88.30
2190;DHT22;1101;51.056;7.262;2022-09-09T05:28:56;15.50;88.30
2190;DHT22;1101;51.056;7.262;2022-09-09T05:31:25;15.50;88.40
2190;DHT22;1101;51.056;7.262;2022-09-09T05:33:56;15.50;88.40
2190;DHT22;1101;51.056;7.262;2022-09-09T05:36:24;15.50;88.50
2190;DHT22;1101;51.056;7.262;2022-09-09T05:38:52;15.50;88.40
2190;DHT22;1101;51.056;7.262;2022-09-09T05:41:21;15.50;88.60
2190;DHT22;1101;51.056;7.262;2022-09-09T05:43:49;15.50;88.60
2190;DHT22;1101;51.056;7.262;2022-09-09T05:46:19;15.50;88.60
2190;DHT22;1101;51.056;7.262;2022-09-09T05:48:48;15.50;88.70
2190;DHT22;1101;51.056;7.262;2022-09-09T05:51:20;15.50;88.80
2190;DHT22;1101;51.056;7.262;2022-09-09T05:53:49;15.50;88.90
2190;DHT22;1101;51.056;7.262;2022-09-09T05:56:18;15.50;89.00
2190;DHT22;1101;51.056;7.262;2022-09-09T05:58:47;15.50;89.10
2190;DHT22;1101;51.056;7.262;2022-09-09T06:01:17;15.50;89.00
2190;DHT22;1101;51.056;7.262;2022-09-09T06:03:46;15.50;89.00
2190;DHT22;1101;51.056;7.262;2022-09-09T06:06:16;15.50;89.00
2190;DHT22;1101;51.056;7.262;2022-09-09T06:08:50;15.50;89.80
2190;DHT22;1101;51.056;7.262;2022-09-09T06:11:20;15.50;89.20
2190;DHT22;1101;51.056;7.262;2022-09-09T06:13:48;15.50;89.20
2190;DHT22;1101;51.056;7.262;2022-09-09T06:16:19;15.50;89.30
2190;DHT22;1101;51.056;7.262;2022-09-09T06:18:50;15.50;89.40
2190;DHT22;1101;51.056;7.262;2022-09-09T06:21:20;15.50;89.50
2190;DHT22;1101;51.056;7.262;2022-09-09T06:23:50;15.50;89.60
2190;DHT22;1101;51.056;7.262;2022-09-09T06:26:20;15.50;89.60
2190;DHT22;1101;51.056;7.262;2022-09-09T06:28:50;15.60;89.60
2190;DHT22;1101;51.056;7.262;2022-09-09T06:31:21;15.60;89.70
2190;DHT22;1101;51.056;7.262;2022-09-09T06:33:55;15.60;89.60
2190;DHT22;1101;51.056;7.262;2022-09-09T06:36:25;15.60;89.60
2190;DHT22;1101;51.056;7.262;2022-09-09T06:38:55;15.70;89.70
2190;DHT22;1101;51.056;7.262;2022-09-09T06:41:24;15.60;89.60
2190;DHT22;1101;51.056;7.262;2022-09-09T06:43:52;15.60;89.60
2190;DHT22;1101;51.056;7.262;2022-09-09T06:46:23;15.70;89.80
2190;DHT22;1101;51.056;7.262;2022-09-09T06:48:54;15.70;89.80
2190;DHT22;1101;51.056;7.262;2022-09-09T06:51:26;15.70;89.80
2190;DHT22;1101;51.056;7.262;2022-09-09T06:53:57;15.70;89.80
2190;DHT22;1101;51.056;7.262;2022-09-09T06:56:27;15.80;89.90
2190;DHT22;1101;51.056;7.262;2022-09-09T06:58:56;15.80;90.00
2190;DHT22;1101;51.056;7.262;2022-09-09T07:01:26;15.80;89.90
2190;DHT22;1101;51.056;7.262;2022-09-09T07:03:56;15.90;90.30
2190;DHT22;1101;51.056;7.262;2022-09-09T07:06:26;15.90;90.00
2190;DHT22;1101;51.056;7.262;2022-09-09T07:08:56;15.90;89.90
2190;DHT22;1101;51.056;7.262;2022-09-09T07:11:27;15.90;89.90
2190;DHT22;1101;51.056;7.262;2022-09-09T07:13:57;15.90;89.90
2190;DHT22;1101;51.056;7.262;2022-09-09T07:16:26;16.00;89.90
2190;DHT22;1101;51.056;7.262;2022-09-09T07:18:54;16.00;89.90
2190;DHT22;1101;51.056;7.262;2022-09-09T07:21:25;16.00;89.90
2190;DHT22;1101;51.056;7.262;2022-09-09T07:23:53;16.00;89.80
2190;DHT22;1101;51.056;7.262;2022-09-09T07:26:25;16.10;89.90
2190;DHT22;1101;51.056;7.262;2022-09-09T07:28:52;16.10;89.90
2190;DHT22;1101;51.056;7.262;2022-09-09T07:31:24;16.20;89.80
2190;DHT22;1101;51.056;7.262;2022-09-09T07:33:53;16.30;89.70
2190;DHT22;1101;51.056;7.262;2022-09-09T07:36:22;16.40;89.70
2190;DHT22;1101;51.056;7.262;2022-09-09T07:38:52;16.40;89.30
2190;DHT22;1101;51.056;7.262;2022-09-09T07:41:23;16.60;89.30
2190;DHT22;1101;51.056;7.262;2022-09-09T07:43:52;16.70;89.30
2190;DHT22;1101;51.056;7.262;2022-09-09T07:46:23;16.70;89.10
2190;DHT22;1101;51.056;7.262;2022-09-09T07:48:52;16.80;89.00
2190;DHT22;1101;51.056;7.262;2022-09-09T07:51:23;16.90;89.00
2190;DHT22;1101;51.056;7.262;2022-09-09T07:53:53;17.00;89.00
2190;DHT22;1101;51.056;7.262;2022-09-09T07:56:22;17.00;88.90
2190;DHT22;1101;51.056;7.262;2022-09-09T07:58:53;17.10;89.00
2190;DHT22;1101;51.056;7.262;2022-09-09T08:01:23;17.20;88.90
2190;DHT22;1101;51.056;7.262;2022-09-09T08:03:56;17.20;88.90
2190;DHT22;1101;51.056;7.262;2022-09-09T08:06:26;17.20;88.80
2190;DHT22;1101;51.056;7.262;2022-09-09T08:08:54;17.20;88.90
2190;DHT22;1101;51.056;7.262;2022-09-09T08:11:26;17.30;88.90
2190;DHT22;1101;51.056;7.262;2022-09-09T08:13:55;17.30;88.90
2190;DHT22;1101;51.056;7.262;2022-09-09T08:16:29;17.30;88.80
2190;DHT22;1101;51.056;7.262;2022-09-09T08:18:58;17.30;88.90
2190;DHT22;1101;51.056;7.262;2022-09-09T08:21:28;17.30;88.70
2190;DHT22;1101;51.056;7.262;2022-09-09T08:23:57;17.30;88.50
2190;DHT22;1101;51.056;7.262;2022-09-09T08:26:28;17.30;88.50
2190;DHT22;1101;51.056;7.262;2022-09-09T08:28:58;17.30;88.40
2190;DHT22;1101;51.056;7.262;2022-09-09T08:31:29;17.30;88.40
2190;DHT22;1101;51.056;7.262;2022-09-09T08:33:58;17.30;88.30
2190;DHT22;1101;51.056;7.262;2022-09-09T08:36:28;17.40;88.40
2190;DHT22;1101;51.056;7.262;2022-09-09T08:38:57;17.30;88.30
2190;DHT22;1101;51.056;7.262;2022-09-09T08:44:29;17.40;88.00
2190;DHT22;1101;51.056;7.262;2022-09-09T08:47:04;17.40;87.80
2190;DHT22;1101;51.056;7.262;2022-09-09T08:49:48;17.40;87.80
2190;DHT22;1101;51.056;7.262;2022-09-09T08:52:23;17.50;87.60
2190;DHT22;1101;51.056;7.262;2022-09-09T08:54:58;17.50;87.40
2190;DHT22;1101;51.056;7.262;2022-09-09T09:00:10;17.70;87.30
2190;DHT22;1101;51.056;7.262;2022-09-09T09:02:48;17.80;87.10
2190;DHT22;1101;51.056;7.262;2022-09-09T09:05:22;17.80;86.90
2190;DHT22;1101;51.056;7.262;2022-09-09T09:08:01;17.90;86.80
2190;DHT22;1101;51.056;7.262;2022-09-09T09:10:41;18.00;86.60
2190;DHT22;1101;51.056;7.262;2022-09-09T09:13:17;18.10;86.60
2190;DHT22;1101;51.056;7.262;2022-09-09T09:15:53;18.20;86.50
2190;DHT22;1101;51.056;7.262;2022-09-09T09:18:23;18.20;86.30
2190;DHT22;1101;51.056;7.262;2022-09-09T09:20:58;18.20;86.10
2190;DHT22;1101;51.056;7.262;2022-09-09T09:23:33;18.20;86.00
2190;DHT22;1101;51.056;7.262;2022-09-09T09:26:07;18.20;86.00
2190;DHT22;1101;51.056;7.262;2022-09-09T09:28:37;18.20;86.10
2190;DHT22;1101;51.056;7.262;2022-09-09T09:31:09;18.30;86.20
2190;DHT22;1101;51.056;7.262;2022-09-09T09:33:45;18.30;86.10
2190;DHT22;1101;51.056;7.262;2022-09-09T09:36:15;18.50;86.20
2190;DHT22;1101;51.056;7.262;2022-09-09T09:38:52;18.60;86.00
2190;DHT22;1101;51.056;7.262;2022-09-09T09:41:42;18.70;85.70
2190;DHT22;1101;51.056;7.262;2022-09-09T09:44:23;18.80;85.40
2190;DHT22;1101;51.056;7.262;2022-09-09T09:47:04;19.00;85.30
2190;DHT22;1101;51.056;7.262;2022-09-09T09:49:32;19.10;85.10
2190;DHT22;1101;51.056;7.262;2022-09-09T09:52:01;19.30;84.90
2190;DHT22;1101;51.056;7.262;2022-09-09T09:54:30;19.40;84.70
2190;DHT22;1101;51.056;7.262;2022-09-09T09:57:09;19.40;84.30
2190;DHT22;1101;51.056;7.262;2022-09-09T09:59:37;19.40;84.20
2190;DHT22;1101;51.056;7.262;2022-09-09T10:02:16;19.40;84.10
2190;DHT22;1101;51.056;7.262;2022-09-09T10:04:44;19.30;84.00
2190;DHT22;1101;51.056;7.262;2022-09-09T10:07:16;19.20;83.80
2190;DHT22;1101;51.056;7.262;2022-09-09T10:09:45;19.10;83.60
2190;DHT22;1101;51.056;7.262;2022-09-09T10:12:24;19.00;83.70
2190;DHT22;1101;51.056;7.262;2022-09-09T10:15:02;18.90;83.40
2190;DHT22;1101;51.056;7.262;2022-09-09T10:17:36;18.80;83.80
2190;DHT22;1101;51.056;7.262;2022-09-09T10:20:20;18.70;84.20
2190;DHT22;1101;51.056;7.262;2022-09-09T10:22:54;18.70;84.80
2190;DHT22;1101;51.056;7.262;2022-09-09T10:25:36;18.70;84.90
2190;DHT22;1101;51.056;7.262;2022-09-09T10:28:19;18.70;85.00
2190;DHT22;1101;51.056;7.262;2022-09-09T10:30:58;18.70;85.10
2190;DHT22;1101;51.056;7.262;2022-09-09T10:33:35;18.80;85.10
2190;DHT22;1101;51.056;7.262;2022-09-09T10:36:13;18.80;84.70
2190;DHT22;1101;51.056;7.262;2022-09-09T10:38:42;18.90;84.80
2190;DHT22;1101;51.056;7.262;2022-09-09T10:41:18;18.90;84.80
2190;DHT22;1101;51.056;7.262;2022-09-09T10:44:02;18.90;84.60
2190;DHT22;1101;51.056;7.262;2022-09-09T10:46:42;19.00;84.70
2190;DHT22;1101;51.056;7.262;2022-09-09T10:49:25;19.00;84.50
2190;DHT22;1101;51.056;7.262;2022-09-09T10:52:00;19.00;84.40
2190;DHT22;1101;51.056;7.262;2022-09-09T10:54:45;19.00;84.20
2190;DHT22;1101;51.056;7.262;2022-09-09T10:57:24;18.90;84.20
2190;DHT22;1101;51.056;7.262;2022-09-09T10:59:58;18.90;84.10
2190;DHT22;1101;51.056;7.262;2022-09-09T11:02:28;18.80;83.70
2190;DHT22;1101;51.056;7.262;2022-09-09T11:05:02;18.80;83.50
2190;DHT22;1101;51.056;7.262;2022-09-09T11:07:36;18.80;83.50
2190;DHT22;1101;51.056;7.262;2022-09-09T11:10:15;18.80;83.20
2190;DHT22;1101;51.056;7.262;2022-09-09T11:12:46;18.80;83.30
2190;DHT22;1101;51.056;7.262;2022-09-09T11:15:20;18.80;83.00
2190;DHT22;1101;51.056;7.262;2022-09-09T11:17:51;18.80;83.10
2190;DHT22;1101;51.056;7.262;2022-09-09T11:20:22;18.90;83.30
2190;DHT22;1101;51.056;7.262;2022-09-09T11:22:55;18.90;83.10
2190;DHT22;1101;51.056;7.262;2022-09-09T11:25:31;18.90;83.00
2190;DHT22;1101;51.056;7.262;2022-09-09T11:28:26;18.90;83.00
2190;DHT22;1101;51.056;7.262;2022-09-09T11:31:11;18.90;82.90
2190;DHT22;1101;51.056;7.262;2022-09-09T11:34:13;19.00;83.00
2190;DHT22;1101;51.056;7.262;2022-09-09T11:37:04;19.00;82.90
2190;DHT22;1101;51.056;7.262;2022-09-09T11:42:34;19.20;82.80
2190;DHT22;1101;51.056;7.262;2022-09-09T11:45:19;19.40;82.70
2190;DHT22;1101;51.056;7.262;2022-09-09T11:47:55;19.50;82.40
2190;DHT22;1101;51.056;7.262;2022-09-09T11:50:31;19.60;82.00
2190;DHT22;1101;51.056;7.262;2022-09-09T11:53:15;19.70;81.60
2190;DHT22;1101;51.056;7.262;2022-09-09T11:55:46;19.70;81.30
2190;DHT22;1101;51.056;7.262;2022-09-09T11:58:17;19.60;81.20
2190;DHT22;1101;51.056;7.262;2022-09-09T12:00:47;19.60;81.30
2190;DHT22;1101;51.056;7.262;2022-09-09T12:03:34;19.60;81.30
2190;DHT22;1101;51.056;7.262;2022-09-09T12:06:11;19.60;81.40
2190;DHT22;1101;51.056;7.262;2022-09-09T12:08:44;19.60;81.30
2190;DHT22;1101;51.056;7.262;2022-09-09T12:11:24;19.60;81.20
2190;DHT22;1101;51.056;7.262;2022-09-09T12:13:54;19.60;81.30
2190;DHT22;1101;51.056;7.262;2022-09-09T12:16:31;19.70;82.30
2190;DHT22;1101;51.056;7.262;2022-09-09T12:19:14;19.70;81.50
2190;DHT22;1101;51.056;7.262;2022-09-09T12:21:49;19.80;81.50
2190;DHT22;1101;51.056;7.262;2022-09-09T12:24:27;19.90;81.30
2190;DHT22;1101;51.056;7.262;2022-09-09T12:26:59;19.90;80.80
2190;DHT22;1101;51.056;7.262;2022-09-09T12:29:38;19.90;80.80
2190;DHT22;1101;51.056;7.262;2022-09-09T12:32:11;19.90;80.60
2190;DHT22;1101;51.056;7.262;2022-09-09T12:34:44;19.90;80.60
2190;DHT22;1101;51.056;7.262;2022-09-09T12:37:17;19.90;80.50
2190;DHT22;1101;51.056;7.262;2022-09-09T12:39:53;19.90;80.30
2190;DHT22;1101;51.056;7.262;2022-09-09T12:42:23;19.90;79.50
2190;DHT22;1101;51.056;7.262;2022-09-09T12:44:52;19.80;80.00
2190;DHT22;1101;51.056;7.262;2022-09-09T12:47:25;19.70;79.80
2190;DHT22;1101;51.056;7.262;2022-09-09T12:49:57;19.70;80.30
2190;DHT22;1101;51.056;7.262;2022-09-09T12:52:28;19.70;80.40
2190;DHT22;1101;51.056;7.262;2022-09-09T12:55:01;19.70;80.40
2190;DHT22;1101;51.056;7.262;2022-09-09T12:57:34;19.70;80.60
2190;DHT22;1101;51.056;7.262;2022-09-09T13:00:06;19.70;80.70
2190;DHT22;1101;51.056;7.262;2022-09-09T13:02:45;19.70;80.50
2190;DHT22;1101;51.056;7.262;2022-09-09T13:05:16;19.70;80.10
2190;DHT22;1101;51.056;7.262;2022-09-09T13:07:44;19.70;80.20
2190;DHT22;1101;51.056;7.262;2022-09-09T13:10:22;19.70;80.20
2190;DHT22;1101;51.056;7.262;2022-09-09T13:13:13;19.70;80.10
2190;DHT22;1101;51.056;7.262;2022-09-09T13:15:49;19.60;80.20
2190;DHT22;1101;51.056;7.262;2022-09-09T13:18:22;19.60;80.10
2190;DHT22;1101;51.056;7.262;2022-09-09T13:20:51;19.50;80.10
2190;DHT22;1101;51.056;7.262;2022-09-09T13:23:20;19.50;80.20
2190;DHT22;1101;51.056;7.262;2022-09-09T13:25:58;19.60;80.30
2190;DHT22;1101;51.056;7.262;2022-09-09T13:28:27;19.60;80.20
2190;DHT22;1101;51.056;7.262;2022-09-09T13:31:00;19.70;80.10
2190;DHT22;1101;51.056;7.262;2022-09-09T13:33:31;19.80;80.30
2190;DHT22;1101;51.056;7.262;2022-09-09T13:36:02;19.90;80.30
2190;DHT22;1101;51.056;7.262;2022-09-09T13:38:33;20.10;80.20
2190;DHT22;1101;51.056;7.262;2022-09-09T13:41:06;20.20;80.00
2190;DHT22;1101;51.056;7.262;2022-09-09T13:43:37;20.20;80.30
2190;DHT22;1101;51.056;7.262;2022-09-09T13:46:24;20.20;78.90
2190;DHT22;1101;51.056;7.262;2022-09-09T13:48:56;20.10;78.80
2190;DHT22;1101;51.056;7.262;2022-09-09T13:51:34;20.00;78.60
2190;DHT22;1101;51.056;7.262;2022-09-09T13:54:04;20.00;78.80
2190;DHT22;1101;51.056;7.262;2022-09-09T13:56:35;20.00;79.10
2190;DHT22;1101;51.056;7.262;2022-09-09T13:59:05;20.10;79.30
2190;DHT22;1101;51.056;7.262;2022-09-09T14:01:34;20.20;79.60
2190;DHT22;1101;51.056;7.262;2022-09-09T14:04:02;20.40;79.70
2190;DHT22;1101;51.056;7.262;2022-09-09T14:06:30;20.50;79.40
2190;DHT22;1101;51.056;7.262;2022-09-09T14:08:58;20.60;79.30
2190;DHT22;1101;51.056;7.262;2022-09-09T14:11:26;20.80;79.30
2190;DHT22;1101;51.056;7.262;2022-09-09T14:13:55;20.80;78.90
2190;DHT22;1101;51.056;7.262;2022-09-09T14:16:23;20.80;78.80
2190;DHT22;1101;51.056;7.262;2022-09-09T14:18:54;20.70;78.50
2190;DHT22;1101;51.056;7.262;2022-09-09T14:21:23;20.60;78.30
2190;DHT22;1101;51.056;7.262;2022-09-09T14:23:51;20.50;78.80
2190;DHT22;1101;51.056;7.262;2022-09-09T14:26:20;20.40;79.00
2190;DHT22;1101;51.056;7.262;2022-09-09T14:28:48;20.50;79.50
2190;DHT22;1101;51.056;7.262;2022-09-09T14:31:22;20.50;79.60
2190;DHT22;1101;51.056;7.262;2022-09-09T14:33:50;20.60;79.50
2190;DHT22;1101;51.056;7.262;2022-09-09T14:36:19;20.60;79.20
2190;DHT22;1101;51.056;7.262;2022-09-09T14:38:47;20.50;79.00
2190;DHT22;1101;51.056;7.262;2022-09-09T14:41:17;20.50;79.10
2190;DHT22;1101;51.056;7.262;2022-09-09T14:43:46;20.40;79.30
2190;DHT22;1101;51.056;7.262;2022-09-09T14:46:15;20.30;79.20
2190;DHT22;1101;51.056;7.262;2022-09-09T14:48:45;20.20;79.00
2190;DHT22;1101;51.056;7.262;2022-09-09T14:51:16;20.10;79.10
2190;DHT22;1101;51.056;7.262;2022-09-09T14:53:46;20.00;79.00
2190;DHT22;1101;51.056;7.262;2022-09-09T14:56:16;20.00;78.80
2190;DHT22;1101;51.056;7.262;2022-09-09T14:58:45;19.90;79.10
2190;DHT22;1101;51.056;7.262;2022-09-09T15:01:16;19.90;79.10
2190;DHT22;1101;51.056;7.262;2022-09-09T15:03:50;19.80;79.30
2190;DHT22;1101;51.056;7.262;2022-09-09T15:06:20;19.80;79.40
2190;DHT22;1101;51.056;7.262;2022-09-09T15:08:49;19.70;79.40
2190;DHT22;1101;51.056;7.262;2022-09-09T15:11:17;19.70;79.50
2190;DHT22;1101;51.056;7.262;2022-09-09T15:13:46;19.60;79.50
2190;DHT22;1101;51.056;7.262;2022-09-09T15:16:15;19.60;79.80
2190;DHT22;1101;51.056;7.262;2022-09-09T15:18:44;19.40;80.10
2190;DHT22;1101;51.056;7.262;2022-09-09T15:21:16;19.20;80.90
2190;DHT22;1101;51.056;7.262;2022-09-09T15:23:45;19.00;81.30
2190;DHT22;1101;51.056;7.262;2022-09-09T15:26:14;18.80;81.80
2190;DHT22;1101;51.056;7.262;2022-09-09T15:28:44;18.70;82.10
2190;DHT22;1101;51.056;7.262;2022-09-09T15:31:18;18.60;82.20
2190;DHT22;1101;51.056;7.262;2022-09-09T15:33:49;18.60;82.60
2190;DHT22;1101;51.056;7.262;2022-09-09T15:36:20;18.60;82.70
2190;DHT22;1101;51.056;7.262;2022-09-09T15:38:48;18.50;82.90
2190;DHT22;1101;51.056;7.262;2022-09-09T15:41:17;18.60;83.20
2190;DHT22;1101;51.056;7.262;2022-09-09T15:43:46;18.50;83.10
2190;DHT22;1101;51.056;7.262;2022-09-09T15:46:27;18.60;83.50
2190;DHT22;1101;51.056;7.262;2022-09-09T15:48:57;18.50;83.50
2190;DHT22;1101;51.056;7.262;2022-09-09T15:51:26;18.60;83.90
2190;DHT22;1101;51.056;7.262;2022-09-09T15:54:12;18.60;84.00
2190;DHT22;1101;51.056;7.262;2022-09-09T15:56:41;18.60;84.20
2190;DHT22;1101;51.056;7.262;2022-09-09T15:59:09;18.60;84.10
2190;DHT22;1101;51.056;7.262;2022-09-09T16:01:37;18.60;84.20
2190;DHT22;1101;51.056;7.262;2022-09-09T16:04:06;18.60;84.40
2190;DHT22;1101;51.056;7.262;2022-09-09T16:06:35;18.70;84.50
2190;DHT22;1101;51.056;7.262;2022-09-09T16:09:05;18.60;84.40
2190;DHT22;1101;51.056;7.262;2022-09-09T16:11:34;18.60;84.40
2190;DHT22;1101;51.056;7.262;2022-09-09T16:14:03;18.60;84.50
2190;DHT22;1101;51.056;7.262;2022-09-09T16:16:33;18.60;84.80
2190;DHT22;1101;51.056;7.262;2022-09-09T16:19:04;18.50;84.70
2190;DHT22;1101;51.056;7.262;2022-09-09T16:21:35;18.50;84.80
2190;DHT22;1101;51.056;7.262;2022-09-09T16:24:05;18.40;84.80
2190;DHT22;1101;51.056;7.262;2022-09-09T16:26:35;18.40;85.00
2190;DHT22;1101;51.056;7.262;2022-09-09T16:29:03;18.40;85.20
2190;DHT22;1101;51.056;7.262;2022-09-09T16:31:31;18.30;85.20
2190;DHT22;1101;51.056;7.262;2022-09-09T16:34:00;18.30;85.60
2190;DHT22;1101;51.056;7.262;2022-09-09T16:36:31;18.20;85.50
2190;DHT22;1101;51.056;7.262;2022-09-09T16:39:04;18.10;85.40
2190;DHT22;1101;51.056;7.262;2022-09-09T16:41:33;17.90;85.70
2190;DHT22;1101;51.056;7.262;2022-09-09T16:44:03;17.90;85.50
2190;DHT22;1101;51.056;7.262;2022-09-09T16:46:34;17.80;85.50
2190;DHT22;1101;51.056;7.262;2022-09-09T16:49:05;17.80;85.60